sensor_id;sensor_type;location;lat;lon;timestamp;pressure;altitude;pressure_sealevel;temperature;humidity
57600;BME280;43426;43.594;24.334;2023-05-24T00:00:08;100842.13;;;13.59;100.00
57600;BME280;43426;43.594;24.334;2023-05-24T00:02:37;100842.69;;;13.55;100.00
57600;BME280;43426;43.594;24.334;2023-05-24T00:05:09;100827.09;;;13.42;100.00
57600;BME280;43426;43.594;24.334;2023-05-24T00:07:38;100810.44;;;13.45;100.00
57600;BME280;43426;43.594;24.334;2023-05-24T00:10:04;100842.88;;;13.68;100.00
57600;BME280;43426;43.594;24.334;2023-05-24T00:12:30;100837.06;;;13.71;100.00
57600;BME280;43426;43.594;24.334;2023-05-24T00:14:56;100814.75;;;13.54;100.00
57600;BME280;43426;43.594;24.334;2023-05-24T00:17:21;100823.13;;;13.59;100.00
57600;BME280;43426;43.594;24.334;2023-05-24T00:19:47;100844.91;;;13.66;100.00
57600;BME280;43426;43.594;24.334;2023-05-24T00:22:12;100814.19;;;13.44;100.00
57600;BME280;43426;43.594;24.334;2023-05-24T00:24:38;100842.97;;;13.60;100.00
57600;BME280;43426;43.594;24.334;2023-05-24T00:27:04;100840.66;;;13.42;100.00
57600;BME280;43426;43.594;24.334;2023-05-24T00:29:29;100839.41;;;13.29;100.00
57600;BME280;43426;43.594;24.334;2023-05-24T00:31:54;100844.38;;;13.41;100.00
57600;BME280;43426;43.594;24.334;2023-05-24T00:34:20;100804.56;;;13.11;100.00
57600;BME280;43426;43.594;24.334;2023-05-24T00:36:45;100840.22;;;13.30;100.00
57600;BME280;43426;43.594;24.334;2023-05-24T00:39:11;100818.63;;;13.07;100.00
57600;BME280;43426;43.594;24.334;2023-05-24T00:41:36;100851.44;;;13.27;100.00
57600;BME280;43426;43.594;24.334;2023-05-24T00:44:01;100845.56;;;13.23;100.00
57600;BME280;43426;43.594;24.334;2023-05-24T00:46:28;100846.13;;;13.19;100.00
57600;BME280;43426;43.594;24.334;2023-05-24T00:48:54;100847.72;;;13.28;100.00
57600;BME280;43426;43.594;24.334;2023-05-24T00:51:19;100855.00;;;13.27;100.00
57600;BME280;43426;43.594;24.334;2023-05-24T00:53:46;100829.47;;;12.92;100.00
57600;BME280;43426;43.594;24.334;2023-05-24T00:56:13;100849.38;;;12.99;100.00
57600;BME280;43426;43.594;24.334;2023-05-24T00:58:39;100848.16;;;13.02;100.00
57600;BME280;43426;43.594;24.334;2023-05-24T01:01:05;100842.22;;;12.83;100.00
57600;BME280;43426;43.594;24.334;2023-05-24T01:03:31;100854.94;;;12.83;100.00
57600;BME280;43426;43.594;24.334;2023-05-24T01:05:57;100845.44;;;12.64;100.00
57600;BME280;43426;43.594;24.334;2023-05-24T01:19:10;100845.75;;;12.46;100.00
57600;BME280;43426;43.594;24.334;2023-05-24T01:24:31;100842.28;;;12.37;100.00
57600;BME280;43426;43.594;24.334;2023-05-24T01:27:13;100870.69;;;12.64;100.00
57600;BME280;43426;43.594;24.334;2023-05-24T01:29:39;100872.22;;;12.58;100.00
57600;BME280;43426;43.594;24.334;2023-05-24T01:32:05;100870.81;;;12.48;100.00
57600;BME280;43426;43.594;24.334;2023-05-24T01:34:31;100852.66;;;12.25;100.00
57600;BME280;43426;43.594;24.334;2023-05-24T01:36:56;100842.59;;;12.19;100.00
57600;BME280;43426;43.594;24.334;2023-05-24T01:39:25;100859.28;;;12.22;100.00
57600;BME280;43426;43.594;24.334;2023-05-24T01:42:07;100861.22;;;12.37;100.00
57600;BME280;43426;43.594;24.334;2023-05-24T01:45:32;100875.72;;;12.44;100.00
57600;BME280;43426;43.594;24.334;2023-05-24T01:48:03;100875.91;;;12.42;100.00
57600;BME280;43426;43.594;24.334;2023-05-24T01:50:33;100853.28;;;12.35;100.00
57600;BME280;43426;43.594;24.334;2023-05-24T01:53:07;100839.63;;;12.29;100.00
57600;BME280;43426;43.594;24.334;2023-05-24T01:55:33;100848.31;;;12.24;100.00
57600;BME280;43426;43.594;24.334;2023-05-24T01:58:02;100878.97;;;12.39;100.00
57600;BME280;43426;43.594;24.334;2023-05-24T02:00:30;100869.88;;;12.32;100.00
57600;BME280;43426;43.594;24.334;2023-05-24T02:02:56;100860.00;;;12.16;100.00
57600;BME280;43426;43.594;24.334;2023-05-24T02:05:22;100855.38;;;12.02;100.00
57600;BME280;43426;43.594;24.334;2023-05-24T02:07:47;100875.41;;;12.16;100.00
57600;BME280;43426;43.594;24.334;2023-05-24T02:10:13;100850.78;;;12.02;100.00
57600;BME280;43426;43.594;24.334;2023-05-24T02:12:38;100849.28;;;12.00;100.00
57600;BME280;43426;43.594;24.334;2023-05-24T02:15:04;100840.34;;;11.91;100.00
57600;BME280;43426;43.594;24.334;2023-05-24T02:17:30;100827.25;;;11.80;100.00
57600;BME280;43426;43.594;24.334;2023-05-24T02:19:58;100850.13;;;11.92;100.00
57600;BME280;43426;43.594;24.334;2023-05-24T02:22:24;100869.22;;;11.99;100.00
57600;BME280;43426;43.594;24.334;2023-05-24T02:24:50;100872.59;;;12.01;100.00
57600;BME280;43426;43.594;24.334;2023-05-24T02:27:15;100865.53;;;11.91;100.00
57600;BME280;43426;43.594;24.334;2023-05-24T02:29:40;100863.63;;;12.00;100.00
57600;BME280;43426;43.594;24.334;2023-05-24T02:32:06;100858.19;;;12.08;100.00
57600;BME280;43426;43.594;24.334;2023-05-24T02:34:31;100859.94;;;11.93;100.00
57600;BME280;43426;43.594;24.334;2023-05-24T02:36:57;100859.31;;;11.83;100.00
57600;BME280;43426;43.594;24.334;2023-05-24T02:39:22;100839.78;;;11.64;100.00
57600;BME280;43426;43.594;24.334;2023-05-24T02:41:48;100829.84;;;11.65;100.00
57600;BME280;43426;43.594;24.334;2023-05-24T02:44:13;100865.88;;;11.97;100.00
57600;BME280;43426;43.594;24.334;2023-05-24T02:46:39;100874.78;;;12.05;100.00
57600;BME280;43426;43.594;24.334;2023-05-24T02:49:04;100861.97;;;11.99;100.00
57600;BME280;43426;43.594;24.334;2023-05-24T02:51:30;100872.09;;;11.97;100.00
57600;BME280;43426;43.594;24.334;2023-05-24T02:53:57;100841.03;;;11.85;100.00
57600;BME280;43426;43.594;24.334;2023-05-24T02:56:23;100851.03;;;11.84;100.00
57600;BME280;43426;43.594;24.334;2023-05-24T02:58:48;100864.38;;;11.94;100.00
57600;BME280;43426;43.594;24.334;2023-05-24T03:01:13;100866.72;;;11.89;100.00
57600;BME280;43426;43.594;24.334;2023-05-24T03:03:39;100879.75;;;11.85;100.00
57600;BME280;43426;43.594;24.334;2023-05-24T03:06:05;100875.06;;;11.71;100.00
57600;BME280;43426;43.594;24.334;2023-05-24T03:08:32;100853.97;;;11.66;100.00
57600;BME280;43426;43.594;24.334;2023-05-24T03:10:57;100870.34;;;11.73;100.00
57600;BME280;43426;43.594;24.334;2023-05-24T03:13:23;100861.13;;;11.59;100.00
57600;BME280;43426;43.594;24.334;2023-05-24T03:15:48;100888.41;;;11.72;100.00
57600;BME280;43426;43.594;24.334;2023-05-24T03:18:13;100898.34;;;11.80;100.00
57600;BME280;43426;43.594;24.334;2023-05-24T03:20:39;100897.19;;;11.74;100.00
57600;BME280;43426;43.594;24.334;2023-05-24T03:23:04;100885.88;;;11.71;100.00
57600;BME280;43426;43.594;24.334;2023-05-24T03:25:30;100859.25;;;11.59;100.00
57600;BME280;43426;43.594;24.334;2023-05-24T03:27:55;100888.69;;;11.94;100.00
57600;BME280;43426;43.594;24.334;2023-05-24T03:30:21;100880.22;;;11.97;100.00
57600;BME280;43426;43.594;24.334;2023-05-24T03:32:46;100893.72;;;12.05;100.00
57600;BME280;43426;43.594;24.334;2023-05-24T03:35:11;100864.00;;;11.89;100.00
57600;BME280;43426;43.594;24.334;2023-05-24T03:37:37;100893.97;;;12.19;100.00
57600;BME280;43426;43.594;24.334;2023-05-24T03:40:03;100870.88;;;12.08;100.00
57600;BME280;43426;43.594;24.334;2023-05-24T03:42:29;100894.31;;;12.24;100.00
57600;BME280;43426;43.594;24.334;2023-05-24T03:44:54;100887.84;;;12.25;100.00
57600;BME280;43426;43.594;24.334;2023-05-24T03:47:20;100885.09;;;12.33;100.00
57600;BME280;43426;43.594;24.334;2023-05-24T03:49:45;100891.81;;;12.37;100.00
57600;BME280;43426;43.594;24.334;2023-05-24T03:52:11;100879.25;;;12.44;100.00
57600;BME280;43426;43.594;24.334;2023-05-24T03:54:37;100880.00;;;12.62;100.00
57600;BME280;43426;43.594;24.334;2023-05-24T03:57:02;100875.09;;;12.80;100.00
57600;BME280;43426;43.594;24.334;2023-05-24T03:59:28;100885.22;;;13.01;100.00
57600;BME280;43426;43.594;24.334;2023-05-24T04:01:55;100865.66;;;13.14;100.00
57600;BME280;43426;43.594;24.334;2023-05-24T04:04:20;100877.75;;;13.41;100.00
57600;BME280;43426;43.594;24.334;2023-05-24T04:06:46;100871.41;;;13.49;100.00
57600;BME280;43426;43.594;24.334;2023-05-24T04:09:12;100886.72;;;13.72;100.00
57600;BME280;43426;43.594;24.334;2023-05-24T04:11:37;100899.56;;;14.00;100.00
57600;BME280;43426;43.594;24.334;2023-05-24T04:14:02;100896.00;;;14.14;100.00
57600;BME280;43426;43.594;24.334;2023-05-24T04:16:28;100905.03;;;14.36;100.00
57600;BME280;43426;43.594;24.334;2023-05-24T04:18:56;100880.47;;;14.44;100.00
57600;BME280;43426;43.594;24.334;2023-05-24T04:21:21;100907.25;;;14.91;100.00
57600;BME280;43426;43.594;24.334;2023-05-24T04:23:47;100875.72;;;14.96;99.23
57600;BME280;43426;43.594;24.334;2023-05-24T04:26:12;100916.06;;;15.49;98.20
57600;BME280;43426;43.594;24.334;2023-05-24T04:28:38;100912.63;;;15.69;96.36
57600;BME280;43426;43.594;24.334;2023-05-24T04:31:04;100914.28;;;16.05;94.22
57600;BME280;43426;43.594;24.334;2023-05-24T04:33:31;100891.31;;;16.14;93.05
57600;BME280;43426;43.594;24.334;2023-05-24T04:35:56;100904.78;;;16.43;92.07
57600;BME280;43426;43.594;24.334;2023-05-24T04:38:25;100890.16;;;16.77;88.36
57600;BME280;43426;43.594;24.334;2023-05-24T04:40:54;100914.94;;;17.16;86.37
57600;BME280;43426;43.594;24.334;2023-05-24T04:43:20;100914.91;;;17.36;85.66
57600;BME280;43426;43.594;24.334;2023-05-24T04:45:47;100918.66;;;17.48;86.16
57600;BME280;43426;43.594;24.334;2023-05-24T04:48:12;100918.44;;;17.70;86.04
57600;BME280;43426;43.594;24.334;2023-05-24T04:50:38;100927.22;;;17.92;84.22
57600;BME280;43426;43.594;24.334;2023-05-24T04:53:04;100925.47;;;18.11;83.37
57600;BME280;43426;43.594;24.334;2023-05-24T04:55:29;100931.38;;;18.47;82.23
57600;BME280;43426;43.594;24.334;2023-05-24T04:57:54;100926.66;;;18.61;81.38
57600;BME280;43426;43.594;24.334;2023-05-24T05:00:20;100931.38;;;18.79;80.75
57600;BME280;43426;43.594;24.334;2023-05-24T05:02:45;100907.34;;;18.94;78.88
57600;BME280;43426;43.594;24.334;2023-05-24T05:05:11;100909.94;;;19.08;77.63
57600;BME280;43426;43.594;24.334;2023-05-24T05:07:37;100902.44;;;19.21;76.69
57600;BME280;43426;43.594;24.334;2023-05-24T05:10:03;100930.56;;;19.54;76.17
57600;BME280;43426;43.594;24.334;2023-05-24T05:12:28;100904.25;;;19.71;75.47
57600;BME280;43426;43.594;24.334;2023-05-24T05:14:54;100909.19;;;19.63;70.93
57600;BME280;43426;43.594;24.334;2023-05-24T05:17:19;100908.97;;;19.46;72.76
57600;BME280;43426;43.594;24.334;2023-05-24T05:19:45;100897.31;;;19.50;73.67
57600;BME280;43426;43.594;24.334;2023-05-24T05:22:11;100923.00;;;19.93;73.52
57600;BME280;43426;43.594;24.334;2023-05-24T05:24:36;100908.88;;;20.27;71.56
57600;BME280;43426;43.594;24.334;2023-05-24T05:27:02;100905.50;;;20.43;71.13
57600;BME280;43426;43.594;24.334;2023-05-24T05:29:27;100929.47;;;20.78;70.86
57600;BME280;43426;43.594;24.334;2023-05-24T05:31:52;100926.31;;;21.05;68.97
57600;BME280;43426;43.594;24.334;2023-05-24T05:34:18;100935.97;;;21.19;67.51
57600;BME280;43426;43.594;24.334;2023-05-24T05:39:10;100910.94;;;21.27;66.12
57600;BME280;43426;43.594;24.334;2023-05-24T05:41:39;100928.59;;;21.20;63.95
57600;BME280;43426;43.594;24.334;2023-05-24T05:44:08;100917.09;;;20.87;67.02
57600;BME280;43426;43.594;24.334;2023-05-24T05:46:33;100919.88;;;20.99;66.69
57600;BME280;43426;43.594;24.334;2023-05-24T05:48:59;100919.28;;;21.33;66.18
57600;BME280;43426;43.594;24.334;2023-05-24T05:51:25;100939.34;;;21.69;62.44
57600;BME280;43426;43.594;24.334;2023-05-24T05:53:50;100935.75;;;21.80;62.55
57600;BME280;43426;43.594;24.334;2023-05-24T05:56:18;100947.00;;;21.79;62.54
57600;BME280;43426;43.594;24.334;2023-05-24T05:58:43;100929.91;;;21.76;62.40
57600;BME280;43426;43.594;24.334;2023-05-24T06:01:09;100948.63;;;22.03;63.28
57600;BME280;43426;43.594;24.334;2023-05-24T06:03:34;100959.94;;;22.19;61.07
57600;BME280;43426;43.594;24.334;2023-05-24T06:06:00;100954.03;;;22.27;61.17
57600;BME280;43426;43.594;24.334;2023-05-24T06:08:25;100972.69;;;22.37;61.85
57600;BME280;43426;43.594;24.334;2023-05-24T06:10:51;100961.97;;;22.52;60.92
57600;BME280;43426;43.594;24.334;2023-05-24T06:13:17;100942.84;;;22.57;61.47
57600;BME280;43426;43.594;24.334;2023-05-24T06:15:42;100944.44;;;22.70;60.50
57600;BME280;43426;43.594;24.334;2023-05-24T06:18:08;100958.66;;;22.79;62.31
57600;BME280;43426;43.594;24.334;2023-05-24T06:20:33;100969.31;;;23.09;59.35
57600;BME280;43426;43.594;24.334;2023-05-24T06:22:59;100954.25;;;23.12;61.13
57600;BME280;43426;43.594;24.334;2023-05-24T06:25:24;100944.59;;;23.26;61.53
57600;BME280;43426;43.594;24.334;2023-05-24T06:27:51;100967.31;;;23.73;60.11
57600;BME280;43426;43.594;24.334;2023-05-24T06:30:17;100948.34;;;23.93;57.41
57600;BME280;43426;43.594;24.334;2023-05-24T06:32:42;100963.28;;;23.97;59.46
57600;BME280;43426;43.594;24.334;2023-05-24T06:35:08;100962.72;;;23.95;58.96
57600;BME280;43426;43.594;24.334;2023-05-24T06:37:35;100951.63;;;23.90;59.97
57600;BME280;43426;43.594;24.334;2023-05-24T06:40:00;100938.53;;;24.03;60.78
57600;BME280;43426;43.594;24.334;2023-05-24T06:42:26;100963.16;;;24.31;60.03
57600;BME280;43426;43.594;24.334;2023-05-24T06:44:51;100933.38;;;24.34;59.01
57600;BME280;43426;43.594;24.334;2023-05-24T06:47:17;100953.56;;;24.61;58.03
57600;BME280;43426;43.594;24.334;2023-05-24T06:49:42;100964.00;;;24.59;58.59
57600;BME280;43426;43.594;24.334;2023-05-24T06:52:07;100957.38;;;24.83;58.14
57600;BME280;43426;43.594;24.334;2023-05-24T06:54:33;100946.69;;;24.91;57.50
57600;BME280;43426;43.594;24.334;2023-05-24T06:56:58;100948.59;;;25.23;56.29
57600;BME280;43426;43.594;24.334;2023-05-24T06:59:24;100936.19;;;25.26;56.24
57600;BME280;43426;43.594;24.334;2023-05-24T07:01:50;100942.13;;;25.40;55.77
57600;BME280;43426;43.594;24.334;2023-05-24T07:04:21;100952.56;;;25.75;56.00
57600;BME280;43426;43.594;24.334;2023-05-24T07:06:46;100960.13;;;25.95;54.21
57600;BME280;43426;43.594;24.334;2023-05-24T07:09:12;100951.03;;;26.00;54.30
57600;BME280;43426;43.594;24.334;2023-05-24T07:11:39;100958.63;;;26.20;54.42
57600;BME280;43426;43.594;24.334;2023-05-24T07:14:04;100951.19;;;26.31;53.54
57600;BME280;43426;43.594;24.334;2023-05-24T07:16:30;100949.25;;;26.31;50.53
57600;BME280;43426;43.594;24.334;2023-05-24T07:18:56;100939.00;;;26.27;51.86
57600;BME280;43426;43.594;24.334;2023-05-24T07:21:22;100950.69;;;26.60;52.01
57600;BME280;43426;43.594;24.334;2023-05-24T07:23:49;100955.72;;;26.73;51.41
57600;BME280;43426;43.594;24.334;2023-05-24T07:26:15;100938.28;;;26.83;51.09
57600;BME280;43426;43.594;24.334;2023-05-24T07:28:42;100938.31;;;27.04;52.49
57600;BME280;43426;43.594;24.334;2023-05-24T07:31:08;100945.78;;;27.24;49.62
57600;BME280;43426;43.594;24.334;2023-05-24T07:33:37;100957.97;;;27.28;50.36
57600;BME280;43426;43.594;24.334;2023-05-24T07:36:06;100943.00;;;27.29;51.08
57600;BME280;43426;43.594;24.334;2023-05-24T07:38:33;100960.72;;;27.59;50.01
57600;BME280;43426;43.594;24.334;2023-05-24T07:41:00;100954.84;;;27.76;52.15
57600;BME280;43426;43.594;24.334;2023-05-24T07:43:25;100949.31;;;27.76;51.00
57600;BME280;43426;43.594;24.334;2023-05-24T07:45:51;100962.31;;;27.85;49.62
57600;BME280;43426;43.594;24.334;2023-05-24T07:48:18;100966.69;;;28.12;49.84
57600;BME280;43426;43.594;24.334;2023-05-24T07:50:44;100961.97;;;28.18;49.10
57600;BME280;43426;43.594;24.334;2023-05-24T07:53:14;100968.53;;;28.27;47.10
57600;BME280;43426;43.594;24.334;2023-05-24T07:55:39;100963.06;;;28.12;49.02
57600;BME280;43426;43.594;24.334;2023-05-24T07:58:05;100945.06;;;27.99;50.29
57600;BME280;43426;43.594;24.334;2023-05-24T08:00:31;100954.75;;;28.17;46.83
57600;BME280;43426;43.594;24.334;2023-05-24T08:02:58;100962.88;;;28.48;47.35
57600;BME280;43426;43.594;24.334;2023-05-24T08:05:23;100953.25;;;28.40;47.55
57600;BME280;43426;43.594;24.334;2023-05-24T08:07:49;100956.78;;;28.51;48.43
57600;BME280;43426;43.594;24.334;2023-05-24T08:10:14;100960.19;;;28.82;46.93
57600;BME280;43426;43.594;24.334;2023-05-24T08:12:40;100948.94;;;28.63;44.70
57600;BME280;43426;43.594;24.334;2023-05-24T08:15:06;100955.72;;;28.86;46.52
57600;BME280;43426;43.594;24.334;2023-05-24T08:17:32;100939.81;;;28.97;46.15
57600;BME280;43426;43.594;24.334;2023-05-24T08:19:58;100953.66;;;29.02;41.97
57600;BME280;43426;43.594;24.334;2023-05-24T08:22:23;100954.63;;;28.37;41.76
57600;BME280;43426;43.594;24.334;2023-05-24T08:24:49;100951.19;;;28.01;42.60
57600;BME280;43426;43.594;24.334;2023-05-24T08:27:14;100947.78;;;28.19;43.72
57600;BME280;43426;43.594;24.334;2023-05-24T08:29:40;100943.47;;;28.48;43.35
57600;BME280;43426;43.594;24.334;2023-05-24T08:32:05;100937.88;;;28.53;42.75
57600;BME280;43426;43.594;24.334;2023-05-24T08:34:36;100947.28;;;28.57;44.10
57600;BME280;43426;43.594;24.334;2023-05-24T08:37:03;100954.75;;;29.07;43.31
57600;BME280;43426;43.594;24.334;2023-05-24T08:39:29;100956.44;;;29.37;41.00
57600;BME280;43426;43.594;24.334;2023-05-24T08:41:56;100956.03;;;29.49;41.25
57600;BME280;43426;43.594;24.334;2023-05-24T08:44:22;100958.91;;;29.68;40.96
57600;BME280;43426;43.594;24.334;2023-05-24T08:46:49;100952.78;;;29.42;38.96
57600;BME280;43426;43.594;24.334;2023-05-24T08:49:15;100949.28;;;29.31;38.09
57600;BME280;43426;43.594;24.334;2023-05-24T08:51:42;100944.94;;;29.14;42.86
57600;BME280;43426;43.594;24.334;2023-05-24T08:54:09;100973.19;;;29.56;40.32
57600;BME280;43426;43.594;24.334;2023-05-24T08:56:39;100965.78;;;29.76;39.23
57600;BME280;43426;43.594;24.334;2023-05-24T08:59:05;100953.91;;;29.41;39.00
57600;BME280;43426;43.594;24.334;2023-05-24T09:01:31;100963.38;;;29.40;38.73
57600;BME280;43426;43.594;24.334;2023-05-24T09:03:58;100947.53;;;29.40;40.44
57600;BME280;43426;43.594;24.334;2023-05-24T09:06:25;100938.00;;;29.46;39.26
57600;BME280;43426;43.594;24.334;2023-05-24T09:08:51;100956.00;;;29.78;37.92
57600;BME280;43426;43.594;24.334;2023-05-24T09:11:18;100942.06;;;30.08;36.09
57600;BME280;43426;43.594;24.334;2023-05-24T09:13:46;100945.63;;;30.32;37.41
57600;BME280;43426;43.594;24.334;2023-05-24T09:16:12;100936.78;;;30.68;36.08
57600;BME280;43426;43.594;24.334;2023-05-24T09:18:39;100937.03;;;30.86;35.89
57600;BME280;43426;43.594;24.334;2023-05-24T09:21:07;100938.59;;;31.11;33.23
57600;BME280;43426;43.594;24.334;2023-05-24T09:23:34;100949.59;;;31.35;35.06
57600;BME280;43426;43.594;24.334;2023-05-24T09:26:08;100941.22;;;31.68;34.01
57600;BME280;43426;43.594;24.334;2023-05-24T09:28:34;100933.38;;;31.37;30.84
57600;BME280;43426;43.594;24.334;2023-05-24T09:31:01;100953.84;;;31.33;31.89
57600;BME280;43426;43.594;24.334;2023-05-24T09:33:31;100953.19;;;31.22;31.67
57600;BME280;43426;43.594;24.334;2023-05-24T09:35:58;100947.53;;;31.27;33.81
57600;BME280;43426;43.594;24.334;2023-05-24T09:38:23;100941.56;;;31.34;33.07
57600;BME280;43426;43.594;24.334;2023-05-24T09:41:04;100938.03;;;31.28;35.00
57600;BME280;43426;43.594;24.334;2023-05-24T09:43:31;100932.47;;;31.42;35.22
57600;BME280;43426;43.594;24.334;2023-05-24T09:46:01;100938.00;;;31.14;31.95
57600;BME280;43426;43.594;24.334;2023-05-24T09:48:28;100919.06;;;30.78;33.96
57600;BME280;43426;43.594;24.334;2023-05-24T09:51:05;100934.88;;;30.83;32.70
57600;BME280;43426;43.594;24.334;2023-05-24T09:53:34;100916.41;;;30.87;32.66
57600;BME280;43426;43.594;24.334;2023-05-24T09:56:03;100930.53;;;30.77;33.74
57600;BME280;43426;43.594;24.334;2023-05-24T09:58:30;100906.94;;;30.88;33.01
57600;BME280;43426;43.594;24.334;2023-05-24T10:01:04;100925.00;;;31.37;33.74
57600;BME280;43426;43.594;24.334;2023-05-24T10:03:30;100920.13;;;31.62;34.16
57600;BME280;43426;43.594;24.334;2023-05-24T10:05:57;100908.75;;;31.86;33.06
57600;BME280;43426;43.594;24.334;2023-05-24T10:08:22;100928.44;;;32.46;31.72
57600;BME280;43426;43.594;24.334;2023-05-24T10:10:48;100914.09;;;32.11;31.41
57600;BME280;43426;43.594;24.334;2023-05-24T10:13:14;100922.00;;;31.67;32.00
57600;BME280;43426;43.594;24.334;2023-05-24T10:15:43;100924.78;;;31.20;32.35
57600;BME280;43426;43.594;24.334;2023-05-24T10:18:08;100911.69;;;31.20;33.23
57600;BME280;43426;43.594;24.334;2023-05-24T10:20:34;100916.63;;;31.23;31.21
57600;BME280;43426;43.594;24.334;2023-05-24T10:23:03;100911.75;;;31.15;31.55
57600;BME280;43426;43.594;24.334;2023-05-24T10:25:33;100912.00;;;31.33;32.33
57600;BME280;43426;43.594;24.334;2023-05-24T10:28:05;100910.63;;;31.63;33.02
57600;BME280;43426;43.594;24.334;2023-05-24T10:33:06;100920.31;;;32.07;31.43
57600;BME280;43426;43.594;24.334;2023-05-24T10:35:32;100903.31;;;32.32;31.76
57600;BME280;43426;43.594;24.334;2023-05-24T10:38:07;100918.38;;;32.45;31.03
57600;BME280;43426;43.594;24.334;2023-05-24T10:40:33;100913.56;;;32.59;31.34
57600;BME280;43426;43.594;24.334;2023-05-24T10:43:03;100897.31;;;32.61;32.27
57600;BME280;43426;43.594;24.334;2023-05-24T10:45:32;100892.56;;;32.84;30.78
57600;BME280;43426;43.594;24.334;2023-05-24T10:50:38;100881.09;;;33.49;31.15
57600;BME280;43426;43.594;24.334;2023-05-24T10:53:14;100883.75;;;33.54;29.90
57600;BME280;43426;43.594;24.334;2023-05-24T10:55:59;100897.00;;;33.80;27.64
57600;BME280;43426;43.594;24.334;2023-05-24T11:00:57;100879.50;;;33.56;28.48
57600;BME280;43426;43.594;24.334;2023-05-24T11:03:22;100892.47;;;33.92;28.97
57600;BME280;43426;43.594;24.334;2023-05-24T11:08:24;100891.22;;;32.59;28.90
57600;BME280;43426;43.594;24.334;2023-05-24T11:11:12;100866.38;;;32.35;28.14
57600;BME280;43426;43.594;24.334;2023-05-24T11:13:39;100880.94;;;32.46;31.06
57600;BME280;43426;43.594;24.334;2023-05-24T11:16:05;100885.31;;;32.60;30.61
57600;BME280;43426;43.594;24.334;2023-05-24T11:18:31;100867.72;;;32.83;29.24
57600;BME280;43426;43.594;24.334;2023-05-24T11:20:58;100875.19;;;32.87;29.16
57600;BME280;43426;43.594;24.334;2023-05-24T11:23:25;100878.09;;;33.36;29.38
57600;BME280;43426;43.594;24.334;2023-05-24T11:25:52;100873.78;;;33.70;26.54
57600;BME280;43426;43.594;24.334;2023-05-24T11:28:18;100882.13;;;33.61;31.77
57600;BME280;43426;43.594;24.334;2023-05-24T11:30:45;100857.94;;;33.66;29.00
57600;BME280;43426;43.594;24.334;2023-05-24T11:33:22;100862.00;;;34.00;28.15
57600;BME280;43426;43.594;24.334;2023-05-24T11:35:53;100860.16;;;33.86;27.39
57600;BME280;43426;43.594;24.334;2023-05-24T11:38:20;100862.38;;;33.67;26.77
57600;BME280;43426;43.594;24.334;2023-05-24T11:40:47;100859.50;;;33.89;27.73
57600;BME280;43426;43.594;24.334;2023-05-24T11:43:16;100861.72;;;33.70;27.35
57600;BME280;43426;43.594;24.334;2023-05-24T11:45:43;100863.25;;;33.76;27.66
57600;BME280;43426;43.594;24.334;2023-05-24T11:48:09;100859.53;;;34.07;29.13
57600;BME280;43426;43.594;24.334;2023-05-24T11:50:42;100852.78;;;34.17;28.23
57600;BME280;43426;43.594;24.334;2023-05-24T11:53:12;100857.88;;;34.23;28.43
57600;BME280;43426;43.594;24.334;2023-05-24T11:55:38;100839.63;;;34.35;26.91
57600;BME280;43426;43.594;24.334;2023-05-24T11:58:31;100838.44;;;34.44;26.37
57600;BME280;43426;43.594;24.334;2023-05-24T12:00:54;100835.63;;;34.62;26.96
57600;BME280;43426;43.594;24.334;2023-05-24T12:03:19;100844.41;;;34.34;25.61
57600;BME280;43426;43.594;24.334;2023-05-24T12:05:45;100840.59;;;34.48;27.67
57600;BME280;43426;43.594;24.334;2023-05-24T12:08:11;100825.72;;;34.73;26.46
57600;BME280;43426;43.594;24.334;2023-05-24T12:10:39;100836.31;;;35.15;25.69
57600;BME280;43426;43.594;24.334;2023-05-24T12:13:16;100833.97;;;35.26;26.19
57600;BME280;43426;43.594;24.334;2023-05-24T12:15:42;100815.03;;;35.14;26.15
57600;BME280;43426;43.594;24.334;2023-05-24T12:18:20;100819.09;;;34.78;26.19
57600;BME280;43426;43.594;24.334;2023-05-24T12:20:47;100823.13;;;34.51;25.93
57600;BME280;43426;43.594;24.334;2023-05-24T12:23:13;100824.13;;;34.37;28.71
57600;BME280;43426;43.594;24.334;2023-05-24T12:25:38;100810.13;;;34.37;27.01
57600;BME280;43426;43.594;24.334;2023-05-24T12:28:04;100811.16;;;33.57;26.37
57600;BME280;43426;43.594;24.334;2023-05-24T12:30:30;100783.78;;;32.65;28.51
57600;BME280;43426;43.594;24.334;2023-05-24T12:32:56;100810.38;;;32.40;30.08
57600;BME280;43426;43.594;24.334;2023-05-24T12:35:21;100807.63;;;32.03;30.11
57600;BME280;43426;43.594;24.334;2023-05-24T12:37:48;100776.88;;;32.17;32.84
57600;BME280;43426;43.594;24.334;2023-05-24T12:40:18;100798.38;;;32.62;30.44
57600;BME280;43426;43.594;24.334;2023-05-24T12:42:49;100793.50;;;32.99;29.76
57600;BME280;43426;43.594;24.334;2023-05-24T12:45:16;100803.34;;;33.28;30.86
57600;BME280;43426;43.594;24.334;2023-05-24T12:47:48;100785.31;;;33.43;30.60
57600;BME280;43426;43.594;24.334;2023-05-24T12:50:14;100787.16;;;33.56;27.94
57600;BME280;43426;43.594;24.334;2023-05-24T12:52:41;100785.34;;;33.69;29.81
57600;BME280;43426;43.594;24.334;2023-05-24T12:55:08;100783.44;;;34.14;27.40
57600;BME280;43426;43.594;24.334;2023-05-24T12:57:34;100791.00;;;34.22;29.21
57600;BME280;43426;43.594;24.334;2023-05-24T12:59:59;100773.84;;;34.23;30.25